sensor_id;sensor_type;location;lat;lon;timestamp;pressure;altitude;pressure_sealevel;temperature;humidity
62632;BME280;48703;51.248;-0.546;2023-04-22T00:01:47;100171;;;4.42;87.96
62632;BME280;48703;51.248;-0.546;2023-04-22T00:04:49;100164;;;4.32;88.42
62632;BME280;48703;51.248;-0.546;2023-04-22T00:07:51;100160;;;4.30;88.86
62632;BME280;48703;51.248;-0.546;2023-04-22T00:10:53;100157;;;4.26;88.77
62632;BME280;48703;51.248;-0.546;2023-04-22T00:13:55;100151;;;4.25;88.27
62632;BME280;48703;51.248;-0.546;2023-04-22T00:16:57;100149;;;4.26;88.16
62632;BME280;48703;51.248;-0.546;2023-04-22T00:19:59;100144;;;4.23;88.37
62632;BME280;48703;51.248;-0.546;2023-04-22T00:23:01;100138;;;4.19;88.69
62632;BME280;48703;51.248;-0.546;2023-04-22T00:26:03;100138;;;4.10;88.82
62632;BME280;48703;51.248;-0.546;2023-04-22T00:29:05;100136;;;4.00;88.73
62632;BME280;48703;51.248;-0.546;2023-04-22T00:32:07;100130;;;3.94;89.00
62632;BME280;48703;51.248;-0.546;2023-04-22T00:35:09;100128;;;3.95;88.41
62632;BME280;48703;51.248;-0.546;2023-04-22T00:38:11;100123;;;3.92;89.01
62632;BME280;48703;51.248;-0.546;2023-04-22T00:41:13;100116;;;3.90;88.84
62632;BME280;48703;51.248;-0.546;2023-04-22T00:44:15;100113;;;3.92;89.11
62632;BME280;48703;51.248;-0.546;2023-04-22T00:47:17;100105;;;3.90;89.48
62632;BME280;48703;51.248;-0.546;2023-04-22T00:50:19;100097;;;3.88;89.27
62632;BME280;48703;51.248;-0.546;2023-04-22T00:53:21;100089;;;3.85;89.48
62632;BME280;48703;51.248;-0.546;2023-04-22T00:56:23;100082;;;3.90;89.86
62632;BME280;48703;51.248;-0.546;2023-04-22T00:59:25;100077;;;3.92;89.54
62632;BME280;48703;51.248;-0.546;2023-04-22T01:02:27;100073;;;3.95;89.80
62632;BME280;48703;51.248;-0.546;2023-04-22T01:05:30;100075;;;3.96;89.79
62632;BME280;48703;51.248;-0.546;2023-04-22T01:08:31;100076;;;3.92;89.43
62632;BME280;48703;51.248;-0.546;2023-04-22T01:11:33;100077;;;3.92;89.74
62632;BME280;48703;51.248;-0.546;2023-04-22T01:14:35;100076;;;3.88;89.94
62632;BME280;48703;51.248;-0.546;2023-04-22T01:17:37;100073;;;3.89;89.85
62632;BME280;48703;51.248;-0.546;2023-04-22T01:20:39;100071;;;3.88;89.40
62632;BME280;48703;51.248;-0.546;2023-04-22T01:23:41;100073;;;3.89;89.40
62632;BME280;48703;51.248;-0.546;2023-04-22T01:26:43;100076;;;3.89;89.74
62632;BME280;48703;51.248;-0.546;2023-04-22T01:29:45;100079;;;3.93;90.06
62632;BME280;48703;51.248;-0.546;2023-04-22T01:32:47;100078;;;3.89;90.03
62632;BME280;48703;51.248;-0.546;2023-04-22T01:35:50;100075;;;3.90;90.10
62632;BME280;48703;51.248;-0.546;2023-04-22T01:38:51;100074;;;3.92;90.43
62632;BME280;48703;51.248;-0.546;2023-04-22T01:41:54;100071;;;3.94;90.40
62632;BME280;48703;51.248;-0.546;2023-04-22T01:44:55;100070;;;3.98;89.78
62632;BME280;48703;51.248;-0.546;2023-04-22T01:47:58;100063;;;4.00;90.58
62632;BME280;48703;51.248;-0.546;2023-04-22T01:51:00;100060;;;3.99;90.75
62632;BME280;48703;51.248;-0.546;2023-04-22T01:54:02;100061;;;3.98;91.13
62632;BME280;48703;51.248;-0.546;2023-04-22T01:57:07;100056;;;4.00;90.86
62632;BME280;48703;51.248;-0.546;2023-04-22T02:00:06;100053;;;4.00;91.11
62632;BME280;48703;51.248;-0.546;2023-04-22T02:03:08;100054;;;4.04;89.77
62632;BME280;48703;51.248;-0.546;2023-04-22T02:06:10;100055;;;4.09;90.14
62632;BME280;48703;51.248;-0.546;2023-04-22T02:09:12;100058;;;4.10;91.36
62632;BME280;48703;51.248;-0.546;2023-04-22T02:12:14;100061;;;4.11;91.60
62632;BME280;48703;51.248;-0.546;2023-04-22T02:15:16;100056;;;4.12;91.51
62632;BME280;48703;51.248;-0.546;2023-04-22T02:18:18;100053;;;4.14;91.33
62632;BME280;48703;51.248;-0.546;2023-04-22T02:21:20;100048;;;4.15;90.45
62632;BME280;48703;51.248;-0.546;2023-04-22T02:24:22;100044;;;4.15;89.94
62632;BME280;48703;51.248;-0.546;2023-04-22T02:27:24;100038;;;4.18;89.61
62632;BME280;48703;51.248;-0.546;2023-04-22T02:30:26;100034;;;4.20;90.31
62632;BME280;48703;51.248;-0.546;2023-04-22T02:33:28;100033;;;4.23;90.59
62632;BME280;48703;51.248;-0.546;2023-04-22T02:36:30;100033;;;4.18;91.53
62632;BME280;48703;51.248;-0.546;2023-04-22T02:39:32;100034;;;4.12;91.29
62632;BME280;48703;51.248;-0.546;2023-04-22T02:42:34;100037;;;4.11;90.65
62632;BME280;48703;51.248;-0.546;2023-04-22T02:45:36;100035;;;4.09;91.39
62632;BME280;48703;51.248;-0.546;2023-04-22T02:48:38;100033;;;4.12;91.36
62632;BME280;48703;51.248;-0.546;2023-04-22T02:51:40;100030;;;4.07;91.38
62632;BME280;48703;51.248;-0.546;2023-04-22T02:54:42;100025;;;3.96;92.20
62632;BME280;48703;51.248;-0.546;2023-04-22T02:57:44;100021;;;3.93;91.95
62632;BME280;48703;51.248;-0.546;2023-04-22T03:00:46;100017;;;3.98;90.88
62632;BME280;48703;51.248;-0.546;2023-04-22T03:03:48;100017;;;3.93;91.15
62632;BME280;48703;51.248;-0.546;2023-04-22T03:06:50;100018;;;3.86;90.72
62632;BME280;48703;51.248;-0.546;2023-04-22T03:09:52;100014;;;3.82;90.23
62632;BME280;48703;51.248;-0.546;2023-04-22T03:12:54;100010;;;3.82;90.29
62632;BME280;48703;51.248;-0.546;2023-04-22T03:15:56;100002;;;3.74;90.87
62632;BME280;48703;51.248;-0.546;2023-04-22T03:18:58;99999;;;3.73;89.88
62632;BME280;48703;51.248;-0.546;2023-04-22T03:22:00;99998;;;3.72;89.94
62632;BME280;48703;51.248;-0.546;2023-04-22T03:25:03;99994;;;3.73;89.81
62632;BME280;48703;51.248;-0.546;2023-04-22T03:28:04;99997;;;3.72;89.69
62632;BME280;48703;51.248;-0.546;2023-04-22T03:31:06;99997;;;3.66;90.20
62632;BME280;48703;51.248;-0.546;2023-04-22T03:34:08;99997;;;3.54;90.17
62632;BME280;48703;51.248;-0.546;2023-04-22T03:37:11;99994;;;3.50;90.10
62632;BME280;48703;51.248;-0.546;2023-04-22T03:40:13;99989;;;3.42;90.39
62632;BME280;48703;51.248;-0.546;2023-04-22T03:43:15;99982;;;3.36;90.68
62632;BME280;48703;51.248;-0.546;2023-04-22T03:46:17;99976;;;3.29;90.09
62632;BME280;48703;51.248;-0.546;2023-04-22T03:49:19;99970;;;3.29;90.27
62632;BME280;48703;51.248;-0.546;2023-04-22T03:52:21;99968;;;3.30;89.87
62632;BME280;48703;51.248;-0.546;2023-04-22T03:55:23;99970;;;3.35;90.04
62632;BME280;48703;51.248;-0.546;2023-04-22T03:58:25;99972;;;3.36;90.66
62632;BME280;48703;51.248;-0.546;2023-04-22T04:01:27;99969;;;3.36;90.88
62632;BME280;48703;51.248;-0.546;2023-04-22T04:04:29;99970;;;3.41;90.19
62632;BME280;48703;51.248;-0.546;2023-04-22T04:07:31;99969;;;3.40;90.47
62632;BME280;48703;51.248;-0.546;2023-04-22T04:10:33;99967;;;3.35;90.78
62632;BME280;48703;51.248;-0.546;2023-04-22T04:13:35;99965;;;3.34;90.25
62632;BME280;48703;51.248;-0.546;2023-04-22T04:16:37;99960;;;3.34;91.27
62632;BME280;48703;51.248;-0.546;2023-04-22T04:19:39;99957;;;3.32;91.70
62632;BME280;48703;51.248;-0.546;2023-04-22T04:22:41;99953;;;3.32;91.48
62632;BME280;48703;51.248;-0.546;2023-04-22T04:25:43;99952;;;3.35;90.87
62632;BME280;48703;51.248;-0.546;2023-04-22T04:28:45;99953;;;3.42;91.06
62632;BME280;48703;51.248;-0.546;2023-04-22T04:31:47;99950;;;3.45;91.51
62632;BME280;48703;51.248;-0.546;2023-04-22T04:34:49;99950;;;3.43;91.74
62632;BME280;48703;51.248;-0.546;2023-04-22T04:37:51;99951;;;3.44;90.50
62632;BME280;48703;51.248;-0.546;2023-04-22T04:40:53;99951;;;3.48;90.85
62632;BME280;48703;51.248;-0.546;2023-04-22T04:43:55;99949;;;3.49;91.57
62632;BME280;48703;51.248;-0.546;2023-04-22T04:46:57;99948;;;3.49;91.63
62632;BME280;48703;51.248;-0.546;2023-04-22T04:49:59;99944;;;3.48;92.43
62632;BME280;48703;51.248;-0.546;2023-04-22T04:53:01;99944;;;3.50;93.06
62632;BME280;48703;51.248;-0.546;2023-04-22T04:56:03;99949;;;3.53;93.21
62632;BME280;48703;51.248;-0.546;2023-04-22T04:59:05;99954;;;3.55;92.30
62632;BME280;48703;51.248;-0.546;2023-04-22T05:02:07;99956;;;3.55;93.02
62632;BME280;48703;51.248;-0.546;2023-04-22T05:05:09;99952;;;3.54;92.97
62632;BME280;48703;51.248;-0.546;2023-04-22T05:08:11;99947;;;3.54;93.02
62632;BME280;48703;51.248;-0.546;2023-04-22T05:11:13;99944;;;3.60;92.47
62632;BME280;48703;51.248;-0.546;2023-04-22T05:14:15;99946;;;3.62;91.18
62632;BME280;48703;51.248;-0.546;2023-04-22T05:17:17;99943;;;3.64;91.65
62632;BME280;48703;51.248;-0.546;2023-04-22T05:20:19;99943;;;3.64;91.48
62632;BME280;48703;51.248;-0.546;2023-04-22T05:23:21;99941;;;3.61;91.96
62632;BME280;48703;51.248;-0.546;2023-04-22T05:26:23;99938;;;3.57;92.78
62632;BME280;48703;51.248;-0.546;2023-04-22T05:29:26;99942;;;3.59;92.11
62632;BME280;48703;51.248;-0.546;2023-04-22T05:32:27;99943;;;3.58;93.03
62632;BME280;48703;51.248;-0.546;2023-04-22T05:35:29;99940;;;3.56;92.61
62632;BME280;48703;51.248;-0.546;2023-04-22T05:38:31;99937;;;3.52;92.78
62632;BME280;48703;51.248;-0.546;2023-04-22T05:41:34;99935;;;3.52;92.31
62632;BME280;48703;51.248;-0.546;2023-04-22T05:44:35;99937;;;3.54;91.38
62632;BME280;48703;51.248;-0.546;2023-04-22T05:47:38;99938;;;3.55;92.51
62632;BME280;48703;51.248;-0.546;2023-04-22T05:50:40;99934;;;3.57;92.89
62632;BME280;48703;51.248;-0.546;2023-04-22T05:53:42;99930;;;3.60;93.95
62632;BME280;48703;51.248;-0.546;2023-04-22T05:56:44;99929;;;3.65;93.56
62632;BME280;48703;51.248;-0.546;2023-04-22T05:59:46;99934;;;3.73;92.71
62632;BME280;48703;51.248;-0.546;2023-04-22T06:02:48;99938;;;3.74;92.99
62632;BME280;48703;51.248;-0.546;2023-04-22T06:05:50;99946;;;3.77;92.05
62632;BME280;48703;51.248;-0.546;2023-04-22T06:08:52;99945;;;3.82;92.83
62632;BME280;48703;51.248;-0.546;2023-04-22T06:11:54;99946;;;3.86;93.68
62632;BME280;48703;51.248;-0.546;2023-04-22T06:14:56;99944;;;3.89;94.49
62632;BME280;48703;51.248;-0.546;2023-04-22T06:17:58;99943;;;3.96;93.73
62632;BME280;48703;51.248;-0.546;2023-04-22T06:21:00;99943;;;4.03;92.78
62632;BME280;48703;51.248;-0.546;2023-04-22T06:24:02;99944;;;4.08;91.97
62632;BME280;48703;51.248;-0.546;2023-04-22T06:27:04;99945;;;4.15;92.08
62632;BME280;48703;51.248;-0.546;2023-04-22T06:30:06;99943;;;4.22;92.16
62632;BME280;48703;51.248;-0.546;2023-04-22T06:33:08;99946;;;4.32;94.36
62632;BME280;48703;51.248;-0.546;2023-04-22T06:36:11;99945;;;4.42;94.20
62632;BME280;48703;51.248;-0.546;2023-04-22T06:39:12;99948;;;4.48;94.61
62632;BME280;48703;51.248;-0.546;2023-04-22T06:42:14;99949;;;4.50;94.21
62632;BME280;48703;51.248;-0.546;2023-04-22T06:45:16;99956;;;4.58;95.22
62632;BME280;48703;51.248;-0.546;2023-04-22T06:48:18;99956;;;4.58;94.33
62632;BME280;48703;51.248;-0.546;2023-04-22T06:51:20;99955;;;4.61;94.34
62632;BME280;48703;51.248;-0.546;2023-04-22T06:54:22;99955;;;4.63;92.98
62632;BME280;48703;51.248;-0.546;2023-04-22T06:57:24;99955;;;4.68;93.62
62632;BME280;48703;51.248;-0.546;2023-04-22T07:00:26;99958;;;4.72;92.80
62632;BME280;48703;51.248;-0.546;2023-04-22T07:03:28;99961;;;4.79;93.67
62632;BME280;48703;51.248;-0.546;2023-04-22T07:06:30;99964;;;4.86;93.53
62632;BME280;48703;51.248;-0.546;2023-04-22T07:09:32;99962;;;4.93;93.57
62632;BME280;48703;51.248;-0.546;2023-04-22T07:12:34;99960;;;5.07;95.26
62632;BME280;48703;51.248;-0.546;2023-04-22T07:15:36;99959;;;5.17;95.05
62632;BME280;48703;51.248;-0.546;2023-04-22T07:18:38;99960;;;5.25;95.13
62632;BME280;48703;51.248;-0.546;2023-04-22T07:21:40;99958;;;5.30;94.47
62632;BME280;48703;51.248;-0.546;2023-04-22T07:24:42;99960;;;5.40;94.97
62632;BME280;48703;51.248;-0.546;2023-04-22T07:27:44;99960;;;5.48;95.54
62632;BME280;48703;51.248;-0.546;2023-04-22T07:30:46;99957;;;5.54;94.86
62632;BME280;48703;51.248;-0.546;2023-04-22T07:33:48;99959;;;5.63;94.76
62632;BME280;48703;51.248;-0.546;2023-04-22T07:36:50;99956;;;5.71;95.36
62632;BME280;48703;51.248;-0.546;2023-04-22T07:39:52;99953;;;5.78;95.56
62632;BME280;48703;51.248;-0.546;2023-04-22T07:42:54;99947;;;5.83;95.17
62632;BME280;48703;51.248;-0.546;2023-04-22T07:45:56;99943;;;5.91;94.91
62632;BME280;48703;51.248;-0.546;2023-04-22T07:48:58;99945;;;6.02;95.53
62632;BME280;48703;51.248;-0.546;2023-04-22T07:52:00;99947;;;6.11;94.69
62632;BME280;48703;51.248;-0.546;2023-04-22T07:55:03;99948;;;6.18;94.03
62632;BME280;48703;51.248;-0.546;2023-04-22T07:58:04;99951;;;6.26;93.89
62632;BME280;48703;51.248;-0.546;2023-04-22T08:01:06;99948;;;6.34;94.09
62632;BME280;48703;51.248;-0.546;2023-04-22T08:04:08;99946;;;6.41;93.33
62632;BME280;48703;51.248;-0.546;2023-04-22T08:07:11;99946;;;6.50;93.69
62632;BME280;48703;51.248;-0.546;2023-04-22T08:10:13;99945;;;6.55;93.40
62632;BME280;48703;51.248;-0.546;2023-04-22T08:13:15;99945;;;6.61;93.08
62632;BME280;48703;51.248;-0.546;2023-04-22T08:16:17;99950;;;6.68;93.36
62632;BME280;48703;51.248;-0.546;2023-04-22T08:19:19;99950;;;6.75;93.19
62632;BME280;48703;51.248;-0.546;2023-04-22T08:22:21;99948;;;6.85;92.92
62632;BME280;48703;51.248;-0.546;2023-04-22T08:25:23;99946;;;6.97;93.34
62632;BME280;48703;51.248;-0.546;2023-04-22T08:28:25;99935;;;7.10;93.28
62632;BME280;48703;51.248;-0.546;2023-04-22T08:31:27;99929;;;7.20;92.52
62632;BME280;48703;51.248;-0.546;2023-04-22T08:34:29;99925;;;7.31;92.40
62632;BME280;48703;51.248;-0.546;2023-04-22T08:37:31;99923;;;7.45;92.26
62632;BME280;48703;51.248;-0.546;2023-04-22T08:40:33;99919;;;7.53;91.45
62632;BME280;48703;51.248;-0.546;2023-04-22T08:43:35;99923;;;7.63;91.69
62632;BME280;48703;51.248;-0.546;2023-04-22T08:46:37;99925;;;7.72;91.22
62632;BME280;48703;51.248;-0.546;2023-04-22T08:49:39;99923;;;7.81;90.49
62632;BME280;48703;51.248;-0.546;2023-04-22T08:52:41;99922;;;7.86;89.56
62632;BME280;48703;51.248;-0.546;2023-04-22T08:55:43;99919;;;7.92;89.60
62632;BME280;48703;51.248;-0.546;2023-04-22T08:58:45;99917;;;8.01;89.77
62632;BME280;48703;51.248;-0.546;2023-04-22T09:01:48;99911;;;8.08;89.96
62632;BME280;48703;51.248;-0.546;2023-04-22T09:04:50;99903;;;8.18;89.77
62632;BME280;48703;51.248;-0.546;2023-04-22T09:07:51;99897;;;8.26;89.13
62632;BME280;48703;51.248;-0.546;2023-04-22T09:10:53;99893;;;8.34;88.97
62632;BME280;48703;51.248;-0.546;2023-04-22T09:13:55;99890;;;8.42;88.67
62632;BME280;48703;51.248;-0.546;2023-04-22T09:16:57;99887;;;8.54;89.16
62632;BME280;48703;51.248;-0.546;2023-04-22T09:20:00;99890;;;8.66;89.19
62632;BME280;48703;51.248;-0.546;2023-04-22T09:23:02;99887;;;8.77;88.84
62632;BME280;48703;51.248;-0.546;2023-04-22T09:26:03;99884;;;8.87;88.52
62632;BME280;48703;51.248;-0.546;2023-04-22T09:29:05;99885;;;8.92;87.17
62632;BME280;48703;51.248;-0.546;2023-04-22T09:32:08;99886;;;9.00;86.93
62632;BME280;48703;51.248;-0.546;2023-04-22T09:35:09;99884;;;9.10;87.44
62632;BME280;48703;51.248;-0.546;2023-04-22T09:38:11;99882;;;9.22;87.13
62632;BME280;48703;51.248;-0.546;2023-04-22T09:41:13;99876;;;9.28;84.98
62632;BME280;48703;51.248;-0.546;2023-04-22T09:44:16;99878;;;9.37;85.58
62632;BME280;48703;51.248;-0.546;2023-04-22T09:47:18;99883;;;9.50;85.62
62632;BME280;48703;51.248;-0.546;2023-04-22T09:50:20;99885;;;9.60;85.26
62632;BME280;48703;51.248;-0.546;2023-04-22T09:53:21;99884;;;9.67;82.52
62632;BME280;48703;51.248;-0.546;2023-04-22T09:56:38;99883;;;9.76;82.89
62632;BME280;48703;51.248;-0.546;2023-04-22T09:59:26;99884;;;9.87;81.37
62632;BME280;48703;51.248;-0.546;2023-04-22T10:02:28;99887;;;9.96;79.77
62632;BME280;48703;51.248;-0.546;2023-04-22T10:05:30;99888;;;10.08;80.83
62632;BME280;48703;51.248;-0.546;2023-04-22T10:08:32;99890;;;10.18;78.25
62632;BME280;48703;51.248;-0.546;2023-04-22T10:11:34;99895;;;10.26;79.23
62632;BME280;48703;51.248;-0.546;2023-04-22T10:14:36;99895;;;10.29;78.53
62632;BME280;48703;51.248;-0.546;2023-04-22T10:17:38;99895;;;10.35;79.62
62632;BME280;48703;51.248;-0.546;2023-04-22T10:20:40;99896;;;10.39;79.45
62632;BME280;48703;51.248;-0.546;2023-04-22T10:23:44;99896;;;10.44;77.96
62632;BME280;48703;51.248;-0.546;2023-04-22T10:26:48;99895;;;10.52;78.05
62632;BME280;48703;51.248;-0.546;2023-04-22T10:29:46;99895;;;10.60;76.95
62632;BME280;48703;51.248;-0.546;2023-04-22T10:32:48;99896;;;10.71;76.72
62632;BME280;48703;51.248;-0.546;2023-04-22T10:36:04;99892;;;10.80;76.31
62632;BME280;48703;51.248;-0.546;2023-04-22T10:39:13;99889;;;10.93;73.92
62632;BME280;48703;51.248;-0.546;2023-04-22T10:41:55;99890;;;11.09;75.85
62632;BME280;48703;51.248;-0.546;2023-04-22T10:44:59;99891;;;11.27;76.31
62632;BME280;48703;51.248;-0.546;2023-04-22T10:47:09;99889;;;11.37;76.30
62632;BME280;48703;51.248;-0.546;2023-04-22T10:50:08;99896;;;11.54;76.48
62632;BME280;48703;51.248;-0.546;2023-04-22T10:56:03;99898;;;11.65;74.12
62632;BME280;48703;51.248;-0.546;2023-04-22T10:59:14;99901;;;11.72;74.88
62632;BME280;48703;51.248;-0.546;2023-04-22T11:02:07;99901;;;11.71;72.10
62632;BME280;48703;51.248;-0.546;2023-04-22T11:05:17;99900;;;11.75;71.56
62632;BME280;48703;51.248;-0.546;2023-04-22T11:08:13;99904;;;11.83;73.80
62632;BME280;48703;51.248;-0.546;2023-04-22T11:11:15;99903;;;11.89;71.63
62632;BME280;48703;51.248;-0.546;2023-04-22T11:14:15;99903;;;11.97;73.15
62632;BME280;48703;51.248;-0.546;2023-04-22T11:17:18;99900;;;12.10;73.38
62632;BME280;48703;51.248;-0.546;2023-04-22T11:20:20;99899;;;12.23;71.57
62632;BME280;48703;51.248;-0.546;2023-04-22T11:23:22;99898;;;12.30;72.46
62632;BME280;48703;51.248;-0.546;2023-04-22T11:26:31;99901;;;12.28;70.58
62632;BME280;48703;51.248;-0.546;2023-04-22T11:29:26;99900;;;12.27;70.80
62632;BME280;48703;51.248;-0.546;2023-04-22T11:32:28;99901;;;12.29;69.10
62632;BME280;48703;51.248;-0.546;2023-04-22T11:35:30;99902;;;12.21;68.34
62632;BME280;48703;51.248;-0.546;2023-04-22T11:38:32;99900;;;12.21;69.60
62632;BME280;48703;51.248;-0.546;2023-04-22T11:41:34;99896;;;12.28;69.73
62632;BME280;48703;51.248;-0.546;2023-04-22T11:44:36;99905;;;12.33;68.33
62632;BME280;48703;51.248;-0.546;2023-04-22T11:47:38;99903;;;12.32;66.36
62632;BME280;48703;51.248;-0.546;2023-04-22T11:50:40;99900;;;12.39;63.83
62632;BME280;48703;51.248;-0.546;2023-04-22T11:53:48;99897;;;12.38;62.26
62632;BME280;48703;51.248;-0.546;2023-04-22T11:56:44;99896;;;12.38;63.21
62632;BME280;48703;51.248;-0.546;2023-04-22T11:59:55;99899;;;12.42;63.57
62632;BME280;48703;51.248;-0.546;2023-04-22T12:02:56;99897;;;12.43;65.29
62632;BME280;48703;51.248;-0.546;2023-04-22T12:05:50;99898;;;12.46;65.14
62632;BME280;48703;51.248;-0.546;2023-04-22T12:08:52;99901;;;12.49;65.50
62632;BME280;48703;51.248;-0.546;2023-04-22T12:11:54;99900;;;12.49;64.02
62632;BME280;48703;51.248;-0.546;2023-04-22T12:14:56;99901;;;12.52;64.77
62632;BME280;48703;51.248;-0.546;2023-04-22T12:18:00;99901;;;12.56;64.29
62632;BME280;48703;51.248;-0.546;2023-04-22T12:21:01;99902;;;12.61;65.67
62632;BME280;48703;51.248;-0.546;2023-04-22T12:24:06;99902;;;12.65;65.20
62632;BME280;48703;51.248;-0.546;2023-04-22T12:27:04;99905;;;12.65;64.63
62632;BME280;48703;51.248;-0.546;2023-04-22T12:30:07;99907;;;12.65;65.97
62632;BME280;48703;51.248;-0.546;2023-04-22T12:33:08;99905;;;12.64;64.78
62632;BME280;48703;51.248;-0.546;2023-04-22T12:36:10;99908;;;12.61;65.52
62632;BME280;48703;51.248;-0.546;2023-04-22T12:39:12;99907;;;12.62;66.87
62632;BME280;48703;51.248;-0.546;2023-04-22T12:42:14;99910;;;12.63;66.45
62632;BME280;48703;51.248;-0.546;2023-04-22T12:45:16;99913;;;12.63;66.62
62632;BME280;48703;51.248;-0.546;2023-04-22T12:48:18;99916;;;12.57;66.03
62632;BME280;48703;51.248;-0.546;2023-04-22T12:51:20;99921;;;12.50;65.82
62632;BME280;48703;51.248;-0.546;2023-04-22T12:54:22;99928;;;12.44;66.04
62632;BME280;48703;51.248;-0.546;2023-04-22T12:57:24;99929;;;12.36;65.49
62632;BME280;48703;51.248;-0.546;2023-04-22T13:00:26;99934;;;12.29;65.48
62632;BME280;48703;51.248;-0.546;2023-04-22T13:03:28;99938;;;12.21;66.38
62632;BME280;48703;51.248;-0.546;2023-04-22T13:06:30;99940;;;12.14;66.75
62632;BME280;48703;51.248;-0.546;2023-04-22T13:09:32;99941;;;12.10;67.16
62632;BME280;48703;51.248;-0.546;2023-04-22T13:12:34;99942;;;12.03;66.69
62632;BME280;48703;51.248;-0.546;2023-04-22T13:15:36;99941;;;11.97;67.39
62632;BME280;48703;51.248;-0.546;2023-04-22T13:18:38;99940;;;11.92;67.71
62632;BME280;48703;51.248;-0.546;2023-04-22T13:21:40;99938;;;11.87;68.23
62632;BME280;48703;51.248;-0.546;2023-04-22T13:24:43;99940;;;11.81;67.44
62632;BME280;48703;51.248;-0.546;2023-04-22T13:27:45;99939;;;11.75;67.81
62632;BME280;48703;51.248;-0.546;2023-04-22T13:30:47;99938;;;11.70;68.09
62632;BME280;48703;51.248;-0.546;2023-04-22T13:33:49;99940;;;11.67;68.93
62632;BME280;48703;51.248;-0.546;2023-04-22T13:36:51;99939;;;11.64;69.24
62632;BME280;48703;51.248;-0.546;2023-04-22T13:39:53;99938;;;11.63;69.70
62632;BME280;48703;51.248;-0.546;2023-04-22T13:42:55;99934;;;11.64;68.89
62632;BME280;48703;51.248;-0.546;2023-04-22T13:45:57;99930;;;11.68;69.12
62632;BME280;48703;51.248;-0.546;2023-04-22T13:48:59;99927;;;11.71;68.74
62632;BME280;48703;51.248;-0.546;2023-04-22T13:52:01;99921;;;11.77;68.99
62632;BME280;48703;51.248;-0.546;2023-04-22T13:55:03;99919;;;11.85;68.59
62632;BME280;48703;51.248;-0.546;2023-04-22T13:58:05;99920;;;11.94;67.96
62632;BME280;48703;51.248;-0.546;2023-04-22T14:01:07;99921;;;12.03;67.76
62632;BME280;48703;51.248;-0.546;2023-04-22T14:04:09;99917;;;12.13;67.50
62632;BME280;48703;51.248;-0.546;2023-04-22T14:07:11;99912;;;12.24;67.45
62632;BME280;48703;51.248;-0.546;2023-04-22T14:10:13;99909;;;12.33;65.32
62632;BME280;48703;51.248;-0.546;2023-04-22T14:13:15;99908;;;12.37;65.35
62632;BME280;48703;51.248;-0.546;2023-04-22T14:16:17;99904;;;12.39;64.37
62632;BME280;48703;51.248;-0.546;2023-04-22T14:19:19;99902;;;12.45;65.01
62632;BME280;48703;51.248;-0.546;2023-04-22T14:22:21;99903;;;12.53;63.36
62632;BME280;48703;51.248;-0.546;2023-04-22T14:25:23;99905;;;12.59;64.64
62632;BME280;48703;51.248;-0.546;2023-04-22T14:28:25;99908;;;12.62;63.90
62632;BME280;48703;51.248;-0.546;2023-04-22T14:31:27;99903;;;12.66;64.46
62632;BME280;48703;51.248;-0.546;2023-04-22T14:34:29;99901;;;12.72;64.63
62632;BME280;48703;51.248;-0.546;2023-04-22T14:37:31;99895;;;12.82;64.40
62632;BME280;48703;51.248;-0.546;2023-04-22T14:40:33;99887;;;13.08;63.79
62632;BME280;48703;51.248;-0.546;2023-04-22T14:43:35;99884;;;13.30;62.79
62632;BME280;48703;51.248;-0.546;2023-04-22T14:46:37;99878;;;13.37;60.78
62632;BME280;48703;51.248;-0.546;2023-04-22T14:49:39;99883;;;13.44;61.74
62632;BME280;48703;51.248;-0.546;2023-04-22T14:52:41;99892;;;13.58;61.03
62632;BME280;48703;51.248;-0.546;2023-04-22T14:55:43;99892;;;13.68;58.61
62632;BME280;48703;51.248;-0.546;2023-04-22T14:58:45;99891;;;13.77;60.38
62632;BME280;48703;51.248;-0.546;2023-04-22T15:01:47;99892;;;13.93;61.10
62632;BME280;48703;51.248;-0.546;2023-04-22T15:04:49;99894;;;14.04;59.53
62632;BME280;48703;51.248;-0.546;2023-04-22T15:07:51;99893;;;14.00;58.44
62632;BME280;48703;51.248;-0.546;2023-04-22T15:10:53;99888;;;13.98;57.87
62632;BME280;48703;51.248;-0.546;2023-04-22T15:13:55;99886;;;13.94;58.63
62632;BME280;48703;51.248;-0.546;2023-04-22T15:16:57;99881;;;14.03;59.75
62632;BME280;48703;51.248;-0.546;2023-04-22T15:19:59;99875;;;13.94;59.29
62632;BME280;48703;51.248;-0.546;2023-04-22T15:23:01;99872;;;13.81;57.86
62632;BME280;48703;51.248;-0.546;2023-04-22T15:26:03;99872;;;13.70;59.79
62632;BME280;48703;51.248;-0.546;2023-04-22T15:29:05;99871;;;13.68;60.29
62632;BME280;48703;51.248;-0.546;2023-04-22T15:32:07;99865;;;13.88;58.35
62632;BME280;48703;51.248;-0.546;2023-04-22T15:35:09;99868;;;14.01;59.05
62632;BME280;48703;51.248;-0.546;2023-04-22T15:38:11;99868;;;14.09;57.88
62632;BME280;48703;51.248;-0.546;2023-04-22T15:41:13;99864;;;13.99;57.20
62632;BME280;48703;51.248;-0.546;2023-04-22T15:44:15;99868;;;13.91;57.06
62632;BME280;48703;51.248;-0.546;2023-04-22T15:47:18;99866;;;13.93;59.00
62632;BME280;48703;51.248;-0.546;2023-04-22T15:50:19;99866;;;13.95;57.19
62632;BME280;48703;51.248;-0.546;2023-04-22T15:53:21;99855;;;14.02;57.36
62632;BME280;48703;51.248;-0.546;2023-04-22T15:56:24;99850;;;14.04;57.78
62632;BME280;48703;51.248;-0.546;2023-04-22T15:59:25;99847;;;13.92;57.05
62632;BME280;48703;51.248;-0.546;2023-04-22T16:02:27;99848;;;13.78;57.57
62632;BME280;48703;51.248;-0.546;2023-04-22T16:05:29;99844;;;13.78;57.56
62632;BME280;48703;51.248;-0.546;2023-04-22T16:08:31;99842;;;13.96;57.46
62632;BME280;48703;51.248;-0.546;2023-04-22T16:11:33;99840;;;14.17;58.36
62632;BME280;48703;51.248;-0.546;2023-04-22T16:14:35;99837;;;14.26;56.71
62632;BME280;48703;51.248;-0.546;2023-04-22T16:17:37;99841;;;14.50;59.35
62632;BME280;48703;51.248;-0.546;2023-04-22T16:20:40;99833;;;14.67;58.09
62632;BME280;48703;51.248;-0.546;2023-04-22T16:23:42;99833;;;14.85;58.06
62632;BME280;48703;51.248;-0.546;2023-04-22T16:26:44;99832;;;14.99;58.41
62632;BME280;48703;51.248;-0.546;2023-04-22T16:29:46;99830;;;15.18;58.12
62632;BME280;48703;51.248;-0.546;2023-04-22T16:32:48;99839;;;15.13;56.46
62632;BME280;48703;51.248;-0.546;2023-04-22T16:35:50;99846;;;14.96;57.28
62632;BME280;48703;51.248;-0.546;2023-04-22T16:38:52;99844;;;14.75;56.29